Albatros — DITX — position and weather

sailwx.info

Track history (hours):
 
Tides and Currents Weather Stations Pressure Air Temp Water Temp Dewpoint Dewpoint Depression Visibility Wind Speed Wind Dir Waves Ship Positions

Albatros

Last reported at 2016-May-29 05:32 UTC. Time now 2016-May-31 02:06 UTC.
Position N 54°33' E 013°08'.

Length 16 m; draft 2 m.

MMSI: 211226200.

Date/timePositionNaut miles runAvg speedWind from/ knotsBaromVisibWave heightAir tempDewpointWater temp
2016-May-29 05:32N 54°33' E 013°08'7 0.3
2016-May-28 07:26N 54°39' E 013°11'0 0.6
2016-May-28 06:33N 54°39' E 013°11'6 5.9
2016-May-28 05:33N 54°33' E 013°08'8 0.4
2016-May-27 11:13N 54°40' E 013°13'1 1.6
2016-May-27 10:25N 54°40' E 013°11'1 0.9
2016-May-27 09:31N 54°39' E 013°10'1 0.5
2016-May-27 08:33N 54°39' E 013°11'0 0.3
2016-May-27 07:31N 54°40' E 013°11'2 1.4
2016-May-27 06:19N 54°38' E 013°11'7 0.2
2016-May-25 13:19N 54°31' E 013°10'3 4.3
2016-May-25 12:33N 54°34' E 013°09'6 6.5
2016-May-25 11:33N 54°40' E 013°10'2 1.7
2016-May-25 10:22N 54°42' E 013°13'0 0.1
2016-May-25 09:33N 54°42' E 013°13'1 0.8
2016-May-25 08:33N 54°41' E 013°14'1 1.4
2016-May-25 07:31N 54°40' E 013°12'5 3.7
2016-May-25 06:06N 54°35' E 013°10'3 5.1
2016-May-25 05:29N 54°32' E 013°08'  
Track history (hours):
 
Tides and Currents Weather Stations Pressure Air Temp Water Temp Dewpoint Dewpoint Depression Visibility Wind Speed Wind Dir Waves Ship Positions

Albatros

Last reported at 2016-May-29 05:32 UTC. Time now 2016-May-31 02:06 UTC.
Position N 54°33' E 013°08'.

Length 16 m; draft 2 m.

MMSI: 211226200.

Date/timePositionNaut miles runAvg speedWind from/ knotsBaromVisibWave heightAir tempDewpointWater temp
2016-May-29 05:32N 54°33' E 013°08'7 0.3
2016-May-28 07:26N 54°39' E 013°11'0 0.6
2016-May-28 06:33N 54°39' E 013°11'6 5.9
2016-May-28 05:33N 54°33' E 013°08'8 0.4
2016-May-27 11:13N 54°40' E 013°13'1 1.6
2016-May-27 10:25N 54°40' E 013°11'1 0.9
2016-May-27 09:31N 54°39' E 013°10'1 0.5
2016-May-27 08:33N 54°39' E 013°11'0 0.3
2016-May-27 07:31N 54°40' E 013°11'2 1.4
2016-May-27 06:19N 54°38' E 013°11'7 0.2
2016-May-25 13:19N 54°31' E 013°10'3 4.3
2016-May-25 12:33N 54°34' E 013°09'6 6.5
2016-May-25 11:33N 54°40' E 013°10'2 1.7
2016-May-25 10:22N 54°42' E 013°13'0 0.1
2016-May-25 09:33N 54°42' E 013°13'1 0.8
2016-May-25 08:33N 54°41' E 013°14'1 1.4
2016-May-25 07:31N 54°40' E 013°12'5 3.7
2016-May-25 06:06N 54°35' E 013°10'3 5.1
2016-May-25 05:29N 54°32' E 013°08'  

Dump ship's entire track history